Time;durP1;ratioP1;P1;durP2;ratioP2;P2;SDS_P1;SDS_P2;PMS_P1;PMS_P2;Temp;Humidity;BMP_temperature;BMP_pressure;BME280_temperature;BME280_humidity;BME280_pressure;Samples;Min_cycle;Max_cycle;Signal;HPM_P1;HPM_P2
2023/03/18 00:00:00;;;;;;;10.15;6.53;;;;;;;14.31;79.21;100672.25;5186220;28;20030;-76
2023/03/18 00:02:32;;;;;;;8.43;5.60;;;;;;;14.32;78.14;100658.94;5182730;28;20033;-76
2023/03/18 00:05:06;;;;;;;8.63;6.07;;;;;;;14.34;78.72;100672.75;5185152;28;20015;-76
2023/03/18 00:07:38;;;;;;;8.65;5.97;;;;;;;14.28;78.93;100662.00;5187044;28;20022;-76
2023/03/18 00:10:10;;;;;;;15.15;7.03;;;;;;;14.26;79.50;100667.47;5186158;28;20030;-76
2023/03/18 00:12:42;;;;;;;10.60;6.40;;;;;;;14.32;78.81;100674.75;5184802;28;20030;-76
2023/03/18 00:15:17;;;;;;;10.48;6.40;;;;;;;14.33;79.31;100679.03;5184536;28;20274;-76
2023/03/18 00:17:48;;;;;;;8.80;5.85;;;;;;;14.14;79.91;100671.34;5186666;28;20034;-76
2023/03/18 00:20:27;;;;;;;9.80;6.20;;;;;;;14.13;80.63;100685.53;5187532;28;20035;-76
2023/03/18 00:22:59;;;;;;;11.43;6.00;;;;;;;14.04;82.34;100676.72;5192260;28;20038;-76
2023/03/18 00:25:30;;;;;;;13.40;6.10;;;;;;;14.01;81.79;100679.66;5191371;28;20330;-76
2023/03/18 00:28:04;;;;;;;10.35;6.22;;;;;;;14.07;82.17;100691.41;5184576;28;20109;-76
2023/03/18 00:30:38;;;;;;;9.82;6.00;;;;;;;14.11;82.71;100687.47;5178664;28;20529;-76
2023/03/18 00:33:09;;;;;;;10.52;6.32;;;;;;;13.97;83.08;100701.22;5182321;28;20046;-76
2023/03/18 00:35:41;;;;;;;10.77;6.32;;;;;;;13.94;84.03;100693.63;5184918;28;20022;-76
2023/03/18 00:38:20;;;;;;;12.70;6.78;;;;;;;14.01;83.21;100694.66;5184245;28;20468;-76
2023/03/18 00:41:09;;;;;;;11.52;6.00;;;;;;;13.93;83.95;100689.34;5185522;28;20031;-76
2023/03/18 00:43:51;;;;;;;10.52;6.90;;;;;;;14.05;83.64;100690.72;5189188;28;20518;-76
2023/03/18 00:46:24;;;;;;;10.38;6.70;;;;;;;14.03;83.31;100705.88;5182801;28;20034;-76
2023/03/18 00:48:59;;;;;;;8.90;6.35;;;;;;;14.02;83.74;100705.06;5183117;28;20026;-76
2023/03/18 00:51:32;;;;;;;10.30;6.57;;;;;;;13.99;84.22;100701.91;5181573;28;20472;-76
2023/03/18 00:54:07;;;;;;;11.05;6.88;;;;;;;13.83;86.03;100707.91;5187671;28;20511;-76
2023/03/18 00:56:39;;;;;;;9.27;6.00;;;;;;;13.82;86.03;100707.03;5183311;28;20627;-76
2023/03/18 00:59:10;;;;;;;11.80;6.23;;;;;;;13.83;86.77;100707.91;5180552;28;20121;-76
2023/03/18 01:01:42;;;;;;;10.27;6.53;;;;;;;13.82;87.49;100703.59;5188099;28;20105;-76
2023/03/18 01:04:13;;;;;;;12.90;6.47;;;;;;;13.80;86.84;100702.94;5188202;28;20030;-76
2023/03/18 01:06:45;;;;;;;11.65;6.63;;;;;;;13.84;87.91;100705.09;5187767;28;20527;-76
2023/03/18 01:09:16;;;;;;;12.93;6.85;;;;;;;13.95;87.38;100697.94;5185500;28;20049;-76
2023/03/18 01:11:48;;;;;;;11.70;6.63;;;;;;;13.83;89.26;100703.47;5183814;28;20034;-76
2023/03/18 01:14:19;;;;;;;15.20;6.95;;;;;;;13.83;90.49;100697.38;5182735;28;20094;-76
2023/03/18 01:16:51;;;;;;;13.68;7.20;;;;;;;13.79;92.80;100698.66;5191520;28;20023;-78
2023/03/18 01:19:23;;;;;;;10.93;6.18;;;;;;;13.83;94.42;100692.09;5191142;28;20037;-77
2023/03/18 01:21:55;;;;;;;11.82;6.90;;;;;;;13.87;95.10;100693.44;5182218;28;20026;-78
2023/03/18 01:24:27;;;;;;;12.07;6.68;;;;;;;13.96;94.38;100694.31;5181739;28;20109;-78
2023/03/18 01:26:59;;;;;;;13.43;6.32;;;;;;;13.83;98.32;100692.94;5181975;28;20704;-78
2023/03/18 01:29:30;;;;;;;12.35;6.45;;;;;;;13.79;100.00;100690.75;5185661;28;20030;-78
2023/03/18 01:32:02;;;;;;;13.90;7.45;;;;;;;13.85;100.00;100700.66;5183542;28;20026;-78
2023/03/18 01:34:34;;;;;;;11.68;6.93;;;;;;;13.83;100.00;100710.53;5186083;28;20030;-78
2023/03/18 01:37:06;;;;;;;14.63;7.18;;;;;;;13.71;100.00;100677.50;5187656;28;20112;-78
2023/03/18 01:39:37;;;;;;;10.60;7.30;;;;;;;13.69;100.00;100690.03;5181731;28;20470;-78
2023/03/18 01:42:09;;;;;;;12.68;7.63;;;;;;;13.71;100.00;100695.94;5184228;28;20043;-78
2023/03/18 01:44:40;;;;;;;13.45;8.52;;;;;;;13.61;100.00;100688.16;5182513;28;20039;-78
2023/03/18 01:47:12;;;;;;;14.60;8.40;;;;;;;13.55;100.00;100699.28;5182531;28;20105;-77
2023/03/18 01:49:48;;;;;;;15.65;9.48;;;;;;;13.52;100.00;100694.31;5187513;28;20022;-77
2023/03/18 01:52:24;;;;;;;14.32;9.45;;;;;;;13.38;100.00;100691.28;5181301;28;20408;-78
2023/03/18 01:54:59;;;;;;;17.98;8.70;;;;;;;13.22;100.00;100685.84;5184735;28;20018;-77
2023/03/18 01:57:31;;;;;;;14.80;9.40;;;;;;;13.27;100.00;100694.13;5185543;28;20042;-77
2023/03/18 02:00:05;;;;;;;17.52;9.55;;;;;;;13.46;100.00;100697.59;5180406;28;20031;-78
2023/03/18 02:02:41;;;;;;;;;;;;;;;13.94;100.00;100697.09;5183321;28;20026;-77
2023/03/18 02:05:16;;;;;;;15.38;9.18;;;;;;;13.31;100.00;100692.84;5179889;28;20353;-77
2023/03/18 02:07:47;;;;;;;15.27;9.45;;;;;;;13.22;100.00;100693.75;5179648;28;20097;-78
2023/03/18 02:10:30;;;;;;;13.20;9.40;;;;;;;13.38;100.00;100687.81;5182732;28;20408;-77
2023/03/18 02:13:05;;;;;;;16.10;10.40;;;;;;;13.30;100.00;100695.66;5185846;28;20026;-77
2023/03/18 02:15:43;;;;;;;13.90;9.85;;;;;;;13.24;100.00;100698.88;5187898;28;20034;-77
2023/03/18 02:18:23;;;;;;;11.93;8.85;;;;;;;13.22;100.00;100693.75;5181779;28;20030;-77
2023/03/18 02:21:21;;;;;;;18.00;10.38;;;;;;;13.43;100.00;100697.88;5181180;28;20090;-77
2023/03/18 02:24:18;;;;;;;18.08;10.63;;;;;;;13.07;100.00;100698.69;5179914;28;20066;-77
2023/03/18 02:27:04;;;;;;;13.40;9.52;;;;;;;13.13;100.00;100695.44;5180243;28;20578;-76
2023/03/18 02:29:36;;;;;;;14.60;10.07;;;;;;;13.10;100.00;100705.44;5178289;28;20035;-77
2023/03/18 02:32:08;;;;;;;16.30;10.70;;;;;;;13.07;100.00;100713.66;5181767;28;20027;-77
2023/03/18 02:34:42;;;;;;;15.43;10.75;;;;;;;13.11;100.00;100715.00;5185067;28;20729;-77
2023/03/18 02:37:14;;;;;;;12.73;10.07;;;;;;;12.87;100.00;100713.75;5181502;28;20077;-77
2023/03/18 02:39:45;;;;;;;15.48;10.57;;;;;;;12.89;100.00;100716.25;5184603;28;20030;-78
2023/03/18 02:42:30;;;;;;;15.50;11.07;;;;;;;13.08;100.00;100717.94;5180016;28;20400;-78
2023/03/18 02:45:02;;;;;;;16.83;11.15;;;;;;;12.96;100.00;100719.13;5185589;28;20483;-77
2023/03/18 02:47:34;;;;;;;15.98;11.38;;;;;;;12.86;100.00;100714.75;5185014;28;20074;-77
2023/03/18 02:50:05;;;;;;;16.90;11.73;;;;;;;12.79;100.00;100718.13;5187423;28;20042;-77
2023/03/18 02:52:37;;;;;;;17.55;11.50;;;;;;;12.76;100.00;100713.97;5185293;28;20058;-77
2023/03/18 02:55:08;;;;;;;16.55;12.85;;;;;;;12.79;100.00;100739.16;5189620;28;20050;-77
2023/03/18 02:57:40;;;;;;;15.30;12.30;;;;;;;12.87;100.00;100733.97;5182940;28;20022;-78
2023/03/18 03:00:12;;;;;;;15.75;10.95;;;;;;;12.91;100.00;100719.56;5189451;28;20120;-78
2023/03/18 03:02:44;;;;;;;15.30;12.25;;;;;;;12.88;100.00;100728.59;5190951;28;20468;-77
2023/03/18 03:05:15;;;;;;;17.40;12.00;;;;;;;12.87;100.00;100732.16;5190332;28;20076;-77
2023/03/18 03:07:46;;;;;;;17.13;11.63;;;;;;;12.93;100.00;100746.53;5193480;28;20022;-76
2023/03/18 03:10:18;;;;;;;16.98;11.82;;;;;;;12.85;100.00;100751.72;5182730;28;20440;-76
2023/03/18 03:12:50;;;;;;;14.23;11.07;;;;;;;12.81;100.00;100745.09;5180478;28;20118;-77
2023/03/18 03:15:22;;;;;;;19.35;12.85;;;;;;;12.85;100.00;100754.34;5184734;28;20045;-76
2023/03/18 03:17:53;;;;;;;16.02;12.43;;;;;;;12.84;100.00;100750.91;5188582;28;20124;-77
2023/03/18 03:20:24;;;;;;;16.35;12.68;;;;;;;12.83;100.00;100751.84;5181191;28;20491;-77
2023/03/18 03:22:56;;;;;;;18.00;12.80;;;;;;;12.86;100.00;100754.19;5187000;28;20487;-77
2023/03/18 03:25:28;;;;;;;17.85;12.38;;;;;;;12.83;100.00;100751.84;5186560;28;20057;-77
2023/03/18 03:27:59;;;;;;;13.98;11.40;;;;;;;12.79;100.00;100739.16;5178719;28;20031;-77
2023/03/18 03:30:31;;;;;;;17.35;11.48;;;;;;;12.90;100.00;100749.47;5190220;28;20034;-77
2023/03/18 03:33:02;;;;;;;16.13;12.15;;;;;;;12.91;100.00;100751.09;5188042;28;20117;-76
2023/03/18 03:35:34;;;;;;;17.10;11.70;;;;;;;12.86;100.00;100754.19;5183118;28;20516;-76
2023/03/18 03:38:06;;;;;;;18.95;12.65;;;;;;;12.92;100.00;100755.41;5184065;28;20380;-77
2023/03/18 03:40:37;;;;;;;16.13;12.02;;;;;;;12.93;100.00;100759.69;5186396;28;20036;-77
2023/03/18 03:43:13;;;;;;;17.63;12.77;;;;;;;13.09;100.00;100746.72;5183613;28;20034;-76
2023/03/18 03:45:44;;;;;;;15.52;12.30;;;;;;;12.89;100.00;100756.53;5182035;28;20019;-77
2023/03/18 03:48:16;;;;;;;16.02;13.07;;;;;;;12.93;100.00;100756.25;5186499;28;20393;-77
2023/03/18 03:50:49;;;;;;;17.67;12.15;;;;;;;12.89;100.00;100761.78;5184553;28;20026;-77
2023/03/18 03:53:21;;;;;;;19.40;12.68;;;;;;;12.87;100.00;100747.13;5186796;28;20121;-77
2023/03/18 03:55:53;;;;;;;13.52;11.88;;;;;;;12.89;100.00;100761.78;5188332;28;20122;-77
2023/03/18 03:58:26;;;;;;;18.07;12.73;;;;;;;12.97;100.00;100762.84;5191765;28;20030;-77
2023/03/18 04:00:57;;;;;;;17.70;13.15;;;;;;;13.05;100.00;100768.19;5186036;28;20033;-77
2023/03/18 04:03:28;;;;;;;15.20;13.02;;;;;;;12.98;100.00;100762.69;5182662;28;20027;-77
2023/03/18 04:06:00;;;;;;;14.95;12.75;;;;;;;12.94;100.00;100768.41;5183996;28;20030;-77
2023/03/18 04:08:31;;;;;;;15.25;12.32;;;;;;;12.96;100.00;100766.47;5188711;28;20027;-78
2023/03/18 04:11:04;;;;;;;14.43;12.43;;;;;;;12.95;100.00;100762.97;5184358;28;20109;-79
2023/03/18 04:13:35;;;;;;;18.80;12.60;;;;;;;12.93;100.00;100780.72;5191014;28;20018;-78
2023/03/18 04:16:06;;;;;;;22.52;13.52;;;;;;;12.94;100.00;100781.56;5185724;28;20433;-77
2023/03/18 04:18:38;;;;;;;21.83;12.65;;;;;;;12.84;100.00;100773.69;5185336;28;20030;-77
2023/03/18 04:21:10;;;;;;;15.30;12.98;;;;;;;12.89;100.00;100766.22;5181540;28;20121;-77
2023/03/18 04:23:41;;;;;;;17.42;13.10;;;;;;;12.82;100.00;100763.34;5186642;28;20069;-77
2023/03/18 04:26:13;;;;;;;19.80;14.07;;;;;;;12.83;100.00;100772.88;5186716;28;20034;-77
2023/03/18 04:28:44;;;;;;;20.65;13.77;;;;;;;12.71;100.00;100778.47;5178404;28;20034;-77
2023/03/18 04:31:15;;;;;;;16.45;13.70;;;;;;;12.73;100.00;100766.88;5180953;28;20414;-77
2023/03/18 04:33:47;;;;;;;16.90;13.00;;;;;;;12.75;100.00;100771.97;5184765;28;20144;-77
2023/03/18 04:36:18;;;;;;;17.80;13.93;;;;;;;12.82;100.00;100776.50;5185522;28;20031;-77
2023/03/18 04:38:50;;;;;;;20.10;14.20;;;;;;;12.84;100.00;100773.69;5184332;28;20041;-76
2023/03/18 04:41:22;;;;;;;15.60;13.18;;;;;;;12.78;100.00;100780.38;5184094;28;20380;-76
2023/03/18 04:43:53;;;;;;;15.15;13.48;;;;;;;12.79;100.00;100781.22;5185563;28;20092;-76
2023/03/18 04:46:28;;;;;;;16.55;13.55;;;;;;;12.74;100.00;100784.28;5184791;28;20115;-76
2023/03/18 04:49:00;;;;;;;16.25;13.80;;;;;;;12.81;100.00;100800.31;5185999;28;20058;-76
2023/03/18 04:51:31;;;;;;;19.05;13.00;;;;;;;12.76;100.00;100789.38;5186201;28;20480;-76
2023/03/18 04:54:03;;;;;;;16.98;14.20;;;;;;;12.77;100.00;100788.44;5187419;28;20508;-76
2023/03/18 04:56:34;;;;;;;19.88;15.10;;;;;;;12.73;100.00;100792.28;5183130;28;20022;-76
2023/03/18 04:59:05;;;;;;;18.90;13.95;;;;;;;12.74;100.00;100794.78;5183141;28;20015;-76
2023/03/18 05:01:37;;;;;;;17.00;14.45;;;;;;;12.81;100.00;100811.66;5184579;28;20113;-76
2023/03/18 05:04:09;;;;;;;16.98;13.88;;;;;;;12.73;100.00;100801.03;5186569;28;20026;-76
2023/03/18 05:06:40;;;;;;;15.68;13.57;;;;;;;12.69;100.00;100807.56;5183912;28;20122;-76
2023/03/18 05:09:12;;;;;;;17.88;13.95;;;;;;;12.61;100.00;100797.75;5186329;28;20117;-76
2023/03/18 05:11:43;;;;;;;16.23;14.27;;;;;;;12.70;100.00;100811.84;5182244;28;20077;-76
2023/03/18 05:14:14;;;;;;;17.63;13.73;;;;;;;12.65;100.00;100811.41;5183595;28;20113;-76
2023/03/18 05:16:46;;;;;;;17.17;14.18;;;;;;;12.63;100.00;100798.44;5185795;28;20073;-76
2023/03/18 05:19:17;;;;;;;17.55;13.82;;;;;;;12.64;100.00;100804.50;5181353;28;20038;-76
2023/03/18 05:21:48;;;;;;;16.75;13.68;;;;;;;12.62;100.00;100793.34;5186698;28;20034;-75
2023/03/18 05:24:20;;;;;;;18.52;14.63;;;;;;;12.62;100.00;100801.22;5177702;28;20038;-76
2023/03/18 05:26:52;;;;;;;16.77;13.18;;;;;;;12.60;100.00;100793.47;5182687;28;20029;-76
2023/03/18 05:29:23;;;;;;;18.27;13.98;;;;;;;12.61;100.00;100783.78;5182453;28;20027;-76
2023/03/18 05:31:54;;;;;;;17.55;14.02;;;;;;;12.53;100.00;100788.91;5181513;28;20036;-76
2023/03/18 05:34:26;;;;;;;16.80;13.93;;;;;;;12.56;100.00;100797.34;5178210;28;20037;-76
2023/03/18 05:36:57;;;;;;;15.02;13.20;;;;;;;12.48;100.00;100783.28;5184221;28;20460;-78
2023/03/18 05:39:30;;;;;;;15.40;13.63;;;;;;;12.57;100.00;100785.03;5189244;28;20049;-77
2023/03/18 05:42:03;;;;;;;17.25;14.05;;;;;;;12.57;100.00;100804.25;5186505;28;20018;-78
2023/03/18 05:44:34;;;;;;;;;;;;;;;13.26;100.00;100799.50;5187674;28;20125;-77
2023/03/18 05:47:06;;;;;;;15.73;13.27;;;;;;;12.62;100.00;100811.72;5181271;28;20060;-77
2023/03/18 05:49:37;;;;;;;14.88;13.13;;;;;;;12.53;100.00;100812.56;5179915;28;20045;-77
2023/03/18 05:52:09;;;;;;;15.13;13.30;;;;;;;12.45;100.00;100815.91;5188246;28;20110;-77
2023/03/18 05:54:41;;;;;;;17.38;13.70;;;;;;;12.49;100.00;100822.53;5184082;28;20381;-77
2023/03/18 05:57:14;;;;;;;16.98;13.65;;;;;;;12.45;100.00;100828.22;5184749;28;20037;-77
2023/03/18 05:59:45;;;;;;;16.10;14.00;;;;;;;12.43;100.00;100840.69;5183636;28;20036;-77
2023/03/18 06:02:17;;;;;;;17.95;13.57;;;;;;;12.36;100.00;100841.25;5178339;28;20393;-78
2023/03/18 06:04:48;;;;;;;19.42;14.63;;;;;;;12.28;100.00;100838.50;5177228;28;20027;-77
2023/03/18 06:07:20;;;;;;;17.02;13.82;;;;;;;12.20;100.00;100838.41;5184537;28;20141;-77
2023/03/18 06:09:52;;;;;;;15.00;13.25;;;;;;;12.21;100.00;100839.22;5183533;28;20485;-78
2023/03/18 06:12:26;;;;;;;16.95;13.82;;;;;;;12.20;100.00;100838.41;5182597;28;20049;-77
2023/03/18 06:14:58;;;;;;;17.02;13.13;;;;;;;12.21;100.00;100837.41;5184288;28;20546;-77
2023/03/18 06:17:30;;;;;;;16.77;14.07;;;;;;;12.21;100.00;100839.22;5183002;28;20038;-78
2023/03/18 06:20:03;;;;;;;15.57;13.30;;;;;;;12.14;100.00;100841.56;5184043;28;20019;-77
2023/03/18 06:22:35;;;;;;;16.77;13.30;;;;;;;12.08;100.00;100839.50;5185543;28;20488;-77
2023/03/18 06:25:07;;;;;;;15.10;13.35;;;;;;;12.01;100.00;100834.00;5176988;28;20037;-77
2023/03/18 06:27:38;;;;;;;15.95;13.65;;;;;;;12.05;100.00;100831.91;5180757;28;20669;-77
2023/03/18 06:30:10;;;;;;;15.77;13.77;;;;;;;12.03;100.00;100842.53;5190871;28;20041;-77
2023/03/18 06:32:42;;;;;;;15.98;12.02;;;;;;;12.06;100.00;100842.28;5181887;28;20027;-78
2023/03/18 06:35:14;;;;;;;17.35;12.88;;;;;;;12.06;100.00;100847.53;5184765;28;20026;-77
2023/03/18 06:37:45;;;;;;;14.15;12.35;;;;;;;11.97;100.00;100843.13;5187116;28;20026;-76
2023/03/18 06:40:16;;;;;;;15.90;12.80;;;;;;;12.04;100.00;100851.25;5181683;28;20039;-76
2023/03/18 06:42:48;;;;;;;14.52;12.75;;;;;;;12.00;100.00;100865.63;5187368;28;20034;-76
2023/03/18 06:45:21;;;;;;;16.27;13.20;;;;;;;11.95;100.00;100865.22;5183493;28;20037;-76
2023/03/18 06:47:52;;;;;;;15.27;11.88;;;;;;;12.07;100.00;100867.56;5185060;28;20446;-76
2023/03/18 06:50:24;;;;;;;16.20;13.55;;;;;;;12.11;100.00;100862.84;5185007;28;20162;-76
2023/03/18 06:52:55;;;;;;;14.65;12.85;;;;;;;12.13;100.00;100859.13;5182589;28;20045;-76
2023/03/18 06:55:27;;;;;;;14.82;12.45;;;;;;;12.16;100.00;100860.66;5183219;28;20034;-76
2023/03/18 06:57:58;;;;;;;19.85;13.40;;;;;;;12.08;100.00;100869.19;5187491;28;20018;-76
2023/03/18 07:00:30;;;;;;;16.08;13.00;;;;;;;12.12;100.00;100861.88;5183943;28;20085;-76
2023/03/18 07:03:03;;;;;;;17.77;13.10;;;;;;;12.11;100.00;100871.56;5183984;28;21302;-76
2023/03/18 07:05:35;;;;;;;17.15;15.35;;;;;;;12.16;100.00;100873.78;5184620;28;20037;-76
2023/03/18 07:08:08;;;;;;;17.48;14.60;;;;;;;12.11;100.00;100879.44;5180167;28;20034;-76
2023/03/18 07:10:39;;;;;;;16.67;14.02;;;;;;;12.13;100.00;100879.31;5182155;28;20544;-77
2023/03/18 07:13:12;;;;;;;16.23;14.57;;;;;;;12.12;100.00;100880.25;5183101;28;20118;-77
2023/03/18 07:15:44;;;;;;;16.95;14.50;;;;;;;12.24;100.00;100894.94;5186206;28;20018;-77
2023/03/18 07:18:15;;;;;;;18.23;15.30;;;;;;;12.08;100.00;100879.72;5182052;28;20112;-77
2023/03/18 07:20:47;;;;;;;17.25;14.52;;;;;;;12.16;100.00;100885.13;5180983;28;20129;-77
2023/03/18 07:23:18;;;;;;;16.25;14.05;;;;;;;12.21;100.00;100902.25;5185218;28;20068;-77
2023/03/18 07:25:50;;;;;;;16.70;14.65;;;;;;;12.28;100.00;100903.38;5187644;28;20039;-77
2023/03/18 07:28:21;;;;;;;17.58;14.75;;;;;;;12.27;100.00;100893.81;5180768;28;20030;-77
2023/03/18 07:30:53;;;;;;;16.77;14.57;;;;;;;12.33;100.00;100904.59;5182803;28;20034;-77
2023/03/18 07:33:24;;;;;;;17.80;14.25;;;;;;;12.32;100.00;100895.06;5187317;28;20404;-77
2023/03/18 07:35:56;;;;;;;19.42;15.65;;;;;;;12.31;100.00;100889.91;5187457;28;20484;-77
2023/03/18 07:38:28;;;;;;;15.63;14.02;;;;;;;12.45;100.00;100902.63;5184975;28;20077;-77
2023/03/18 07:41:00;;;;;;;18.40;15.23;;;;;;;12.53;100.00;100908.00;5185780;28;20041;-77
2023/03/18 07:43:31;;;;;;;15.43;13.60;;;;;;;12.55;100.00;100913.97;5182941;28;20058;-77
2023/03/18 07:46:03;;;;;;;16.20;13.45;;;;;;;12.69;100.00;100911.84;5186301;28;20034;-77
2023/03/18 07:48:34;;;;;;;14.65;13.15;;;;;;;12.69;100.00;100922.34;5188835;28;20035;-77
2023/03/18 07:51:06;;;;;;;18.17;14.52;;;;;;;12.72;100.00;100930.78;5188633;28;20057;-77
2023/03/18 07:53:37;;;;;;;14.20;12.70;;;;;;;12.75;100.00;100922.63;5193971;28;20046;-78
2023/03/18 07:56:11;;;;;;;14.65;13.07;;;;;;;12.87;100.00;100928.53;5184922;28;20031;-77
2023/03/18 07:58:43;;;;;;;14.43;12.48;;;;;;;12.82;100.00;100918.47;5181954;28;20545;-77
2023/03/18 08:01:18;;;;;;;14.20;12.73;;;;;;;12.89;100.00;100914.28;5185051;28;20060;-77
2023/03/18 08:03:50;;;;;;;13.10;11.55;;;;;;;13.02;100.00;100919.22;5188196;28;20038;-77
2023/03/18 08:06:21;;;;;;;14.43;11.00;;;;;;;13.01;100.00;100903.59;5186021;28;20085;-77
2023/03/18 08:08:52;;;;;;;12.25;10.38;;;;;;;13.11;100.00;100907.03;5186389;28;20718;-77
2023/03/18 08:11:24;;;;;;;12.85;10.93;;;;;;;13.23;100.00;100900.63;5187579;28;20026;-77
2023/03/18 08:13:55;;;;;;;11.82;10.18;;;;;;;13.27;100.00;100891.47;5183909;28;20595;-77
2023/03/18 08:16:27;;;;;;;11.90;9.50;;;;;;;13.37;100.00;100902.78;5185677;28;20506;-77
2023/03/18 08:18:58;;;;;;;10.10;9.02;;;;;;;13.45;100.00;100895.91;5182675;28;20030;-77
2023/03/18 08:21:29;;;;;;;12.25;9.65;;;;;;;13.46;100.00;100890.53;5186261;28;20037;-77
2023/03/18 08:24:01;;;;;;;10.20;8.48;;;;;;;13.59;100.00;100898.06;5188140;28;20050;-77
2023/03/18 08:26:33;;;;;;;12.48;8.93;;;;;;;13.70;100.00;100897.84;5183447;28;20038;-77
2023/03/18 08:29:04;;;;;;;9.60;8.60;;;;;;;13.85;100.00;100898.97;5184095;28;20042;-77
2023/03/18 08:31:36;;;;;;;10.07;8.50;;;;;;;13.85;100.00;100904.25;5180665;28;20444;-77
2023/03/18 08:34:07;;;;;;;13.48;8.38;;;;;;;13.91;100.00;100900.22;5183396;28;20106;-77
2023/03/18 08:36:39;;;;;;;8.60;7.70;;;;;;;14.06;100.00;100903.16;5184559;28;20553;-77
2023/03/18 08:39:11;;;;;;;10.43;7.77;;;;;;;14.06;100.00;100911.88;5186030;28;20457;-77
2023/03/18 08:41:42;;;;;;;9.10;7.47;;;;;;;14.13;100.00;100914.72;5184147;28;20030;-77
2023/03/18 08:44:14;;;;;;;10.38;8.07;;;;;;;14.24;100.00;100918.91;5180653;28;20526;-77
2023/03/18 08:46:45;;;;;;;9.77;8.02;;;;;;;14.27;100.00;100924.72;5182222;28;20018;-77
2023/03/18 08:49:17;;;;;;;9.82;7.80;;;;;;;14.45;100.00;100929.16;5184927;28;20499;-76
2023/03/18 08:51:49;;;;;;;9.13;7.82;;;;;;;14.58;100.00;100929.59;5183744;28;20072;-78
2023/03/18 08:54:20;;;;;;;9.00;7.93;;;;;;;14.58;100.00;100929.59;5181687;28;20034;-77
2023/03/18 08:56:54;;;;;;;7.40;6.40;;;;;;;14.57;100.00;100917.41;5179558;28;20088;-77
2023/03/18 08:59:25;;;;;;;8.05;7.10;;;;;;;14.54;100.00;100917.69;5187776;28;20096;-77
2023/03/18 09:01:56;;;;;;;8.35;7.55;;;;;;;14.73;100.00;100935.13;5177405;28;20102;-77
2023/03/18 09:04:29;;;;;;;9.25;7.00;;;;;;;14.67;100.00;100917.31;5180623;28;20578;-77
2023/03/18 09:07:02;;;;;;;10.70;7.25;;;;;;;14.82;100.00;100931.59;5178848;28;20026;-77
2023/03/18 09:09:33;;;;;;;8.75;7.43;;;;;;;14.99;100.00;100935.94;5178622;28;20057;-77
2023/03/18 09:12:05;;;;;;;8.35;6.63;;;;;;;15.09;100.00;100943.78;5177588;28;20437;-76
2023/03/18 09:14:37;;;;;;;8.32;6.53;;;;;;;15.05;100.00;100939.78;5180865;28;20084;-77
2023/03/18 09:17:08;;;;;;;9.88;7.05;;;;;;;15.13;100.00;100929.28;5185441;28;20045;-77
2023/03/18 09:19:40;;;;;;;10.55;6.97;;;;;;;15.16;100.00;100931.59;5180139;28;20382;-76
2023/03/18 09:22:11;;;;;;;9.82;6.30;;;;;;;15.12;100.00;100925.00;5177107;28;20110;-76
2023/03/18 09:24:43;;;;;;;11.52;7.28;;;;;;;15.17;100.00;100935.06;5177723;28;20049;-77
2023/03/18 09:27:14;;;;;;;8.05;5.72;;;;;;;15.15;100.00;100937.03;5180672;28;20035;-77
2023/03/18 09:29:45;;;;;;;7.53;5.80;;;;;;;15.14;100.00;100923.00;5181218;28;20057;-77
2023/03/18 09:32:16;;;;;;;5.13;4.13;;;;;;;15.24;100.00;100936.91;5170480;28;20101;-77
2023/03/18 09:34:48;;;;;;;7.18;4.80;;;;;;;15.29;100.00;100937.25;5177443;28;20119;-77
2023/03/18 09:37:20;;;;;;;7.93;5.70;;;;;;;15.44;100.00;100942.75;5183796;28;20065;-79
2023/03/18 09:39:51;;;;;;;7.45;5.35;;;;;;;15.61;100.00;100943.66;5182129;28;20022;-78
2023/03/18 09:42:41;;;;;;;8.98;5.38;;;;;;;15.72;100.00;100930.19;5182325;28;20268;-78
2023/03/18 09:45:23;;;;;;;7.15;5.30;;;;;;;16.05;100.00;100931.06;5181642;28;20026;-77
2023/03/18 09:48:09;;;;;;;6.13;5.10;;;;;;;16.09;100.00;100920.97;5180174;28;20513;-77
2023/03/18 09:51:36;;;;;;;6.35;4.38;;;;;;;16.56;100.00;100941.47;5180457;28;20027;-78
2023/03/18 09:54:13;;;;;;;5.63;4.00;;;;;;;16.54;100.00;100944.28;5170375;28;20464;-77
2023/03/18 09:56:44;;;;;;;7.45;4.00;;;;;;;16.51;100.00;100931.38;5179733;28;20052;-77
2023/03/18 09:59:20;;;;;;;5.38;3.80;;;;;;;16.76;100.00;100931.41;5181858;28;20034;-77
2023/03/18 10:01:55;;;;;;;7.03;4.07;;;;;;;16.77;100.00;100925.09;5177641;28;20133;-77
2023/03/18 10:04:32;;;;;;;7.18;3.67;;;;;;;16.88;100.00;100923.94;5180087;28;20030;-77
2023/03/18 10:07:13;;;;;;;8.63;3.75;;;;;;;16.97;100.00;100938.78;5179999;28;20052;-77
2023/03/18 10:09:52;;;;;;;4.53;2.80;;;;;;;17.11;100.00;100932.78;5178616;28;20037;-78
2023/03/18 10:12:37;;;;;;;7.50;3.78;;;;;;;17.24;100.00;100927.78;5180052;28;20419;-77
2023/03/18 10:15:25;;;;;;;6.25;3.67;;;;;;;17.45;100.00;100939.59;5179731;28;20588;-77
2023/03/18 10:18:08;;;;;;;6.30;3.42;;;;;;;17.35;97.80;100923.09;5182740;28;20027;-77
2023/03/18 10:21:02;;;;;;;6.90;3.65;;;;;;;17.52;96.68;100936.09;5181977;28;20158;-77
2023/03/18 10:24:06;;;;;;;6.40;2.83;;;;;;;17.86;95.54;100939.44;5179885;28;20090;-77
2023/03/18 10:26:46;;;;;;;5.82;3.20;;;;;;;17.67;92.28;100928.22;5182595;28;20096;-77
2023/03/18 10:29:39;;;;;;;5.22;2.90;;;;;;;17.95;93.75;100941.00;5184602;28;21147;-77
2023/03/18 10:32:31;;;;;;;5.47;3.40;;;;;;;17.87;92.84;100941.88;5183321;28;20027;-77
2023/03/18 10:35:29;;;;;;;6.55;3.42;;;;;;;18.10;92.47;100933.94;5181185;28;20018;-77
2023/03/18 10:38:15;;;;;;;7.75;2.85;;;;;;;17.82;85.88;100935.47;5183419;28;20069;-78
2023/03/18 10:40:48;;;;;;;4.45;2.45;;;;;;;17.85;87.14;100927.19;5168192;28;20073;-77
2023/03/18 10:43:28;;;;;;;5.67;2.63;;;;;;;18.02;85.74;100930.53;5178476;28;20456;-77
2023/03/18 10:46:03;;;;;;;6.30;2.60;;;;;;;17.86;84.51;100916.38;5180476;28;20396;-77
2023/03/18 10:48:41;;;;;;;3.42;2.22;;;;;;;17.91;83.21;100926.47;5182375;28;20042;-77
2023/03/18 10:51:31;;;;;;;5.43;2.40;;;;;;;18.09;86.79;100921.69;5181701;28;20030;-77
2023/03/18 10:54:11;;;;;;;5.63;2.35;;;;;;;17.74;83.83;100917.78;5178832;28;20115;-77
2023/03/18 10:56:43;;;;;;;6.07;1.92;;;;;;;17.51;82.12;100888.59;5178722;28;20034;-77
2023/03/18 10:59:20;;;;;;;4.95;2.28;;;;;;;17.72;82.43;100920.56;5178589;28;20400;-77
2023/03/18 11:02:18;;;;;;;5.60;2.00;;;;;;;17.98;85.14;100919.44;5184530;28;20078;-77
2023/03/18 11:04:54;;;;;;;6.05;2.28;;;;;;;17.69;81.42;100922.75;5183829;28;20496;-77
2023/03/18 11:07:26;;;;;;;5.68;2.08;;;;;;;17.58;82.58;100926.66;5185902;28;20037;-77
2023/03/18 11:10:22;;;;;;;5.97;2.90;;;;;;;17.92;84.07;100930.78;5181577;28;20422;-78
2023/03/18 11:12:58;;;;;;;6.07;1.90;;;;;;;17.55;84.88;100926.97;5178825;28;20047;-77
2023/03/18 11:15:37;;;;;;;5.97;2.40;;;;;;;17.60;84.73;100929.94;5184157;28;20033;-77
2023/03/18 11:18:18;;;;;;;6.28;2.30;;;;;;;17.60;84.70;100927.28;5184366;28;20476;-77
2023/03/18 11:21:00;;;;;;;4.07;2.13;;;;;;;17.62;85.98;100932.41;5181527;28;20026;-77
2023/03/18 11:23:47;;;;;;;6.25;2.40;;;;;;;17.49;85.80;100931.13;5186483;28;20049;-77
2023/03/18 11:26:29;;;;;;;6.30;2.65;;;;;;;17.52;85.18;100940.56;5185949;28;20049;-77
2023/03/18 11:29:12;;;;;;;6.57;2.90;;;;;;;17.42;84.84;100948.72;5181268;28;20031;-77
2023/03/18 11:31:56;;;;;;;;;;;;;;;17.99;81.92;100952.91;5186496;28;20065;-77
2023/03/18 11:34:31;;;;;;;4.20;2.20;;;;;;;17.08;83.29;100933.13;5188068;28;19914;-77
2023/03/18 11:37:07;;;;;;;5.70;2.20;;;;;;;17.08;83.68;100961.41;5183599;28;20027;-78
2023/03/18 11:39:40;;;;;;;4.78;2.08;;;;;;;17.06;84.18;100956.31;5182515;28;20117;-76